Time;durP1;ratioP1;P1;durP2;ratioP2;P2;SDS_P1;SDS_P2;PMS_P1;PMS_P2;Temp;Humidity;BMP_temperature;BMP_pressure;BME280_temperature;BME280_humidity;BME280_pressure;Samples;Min_cycle;Max_cycle;Signal;HPM_P1;HPM_P2
2022/01/12 00:00:21;;;;;;;24.90;3.97;;;;;;;3.66;100.00;101066.28;5077027;28;20110;-79
2022/01/12 00:02:47;;;;;;;20.98;4.13;;;;;;;3.60;100.00;101057.13;5062126;28;20134;-76
2022/01/12 00:05:16;;;;;;;33.92;4.65;;;;;;;3.76;100.00;101062.16;5071334;28;20407;-78
2022/01/12 00:07:42;;;;;;;16.63;4.60;;;;;;;3.62;100.00;101065.63;5063024;28;21916;-78
2022/01/12 00:10:11;;;;;;;15.95;3.58;;;;;;;3.46;100.00;101071.00;5070547;28;20469;-78
2022/01/12 00:12:37;;;;;;;18.13;4.45;;;;;;;3.43;100.00;101071.19;5070796;28;20029;-77
2022/01/12 00:15:03;;;;;;;23.35;3.95;;;;;;;3.29;100.00;101065.09;5071633;28;20028;-77
2022/01/12 00:17:29;;;;;;;11.63;3.53;;;;;;;3.23;100.00;101078.47;5071249;28;20031;-77
2022/01/12 00:19:54;;;;;;;16.33;4.93;;;;;;;3.05;100.00;101075.28;5044982;28;20107;-77
2022/01/12 00:22:20;;;;;;;25.73;3.75;;;;;;;2.96;100.00;101068.91;5071196;28;20484;-78
2022/01/12 00:35:56;;;;;;;17.55;3.15;;;;;;;3.25;100.00;101066.22;5028880;28;20475;-78
2022/01/12 00:38:25;;;;;;;14.70;3.50;;;;;;;3.19;100.00;101071.81;5062616;28;20037;-77
2022/01/12 00:40:53;;;;;;;19.35;3.40;;;;;;;3.40;100.00;101072.22;5053709;28;20028;-78
2022/01/12 00:43:21;;;;;;;15.52;3.08;;;;;;;3.51;100.00;101079.31;5070936;28;20036;-78
2022/01/12 00:45:47;;;;;;;15.55;2.67;;;;;;;3.55;100.00;101086.00;5069744;28;20245;-78
2022/01/12 00:48:17;;;;;;;12.73;2.47;;;;;;;3.59;100.00;101096.19;5061760;28;20097;-78
2022/01/12 00:50:46;;;;;;;21.15;3.45;;;;;;;3.63;100.00;101115.84;5060719;28;20028;-78
2022/01/12 00:53:13;;;;;;;18.10;3.75;;;;;;;3.75;100.00;101119.41;5071250;28;20032;-77
2022/01/12 00:55:39;;;;;;;19.63;3.47;;;;;;;3.80;100.00;101125.13;5070107;28;20389;-76
2022/01/12 00:58:05;;;;;;;16.42;3.72;;;;;;;3.87;100.00;101126.41;5070749;28;20432;-76
2022/01/12 01:00:32;;;;;;;16.80;3.20;;;;;;;3.86;100.00;101132.56;5071095;28;20029;-77
2022/01/12 01:02:58;;;;;;;10.57;3.05;;;;;;;3.84;100.00;101111.84;5064190;28;20385;-77
2022/01/12 01:05:26;;;;;;;25.08;4.10;;;;;;;3.97;100.00;101100.66;5070389;28;20120;-77
2022/01/12 01:07:52;;;;;;;15.88;3.78;;;;;;;3.89;100.00;101072.59;5062757;28;20942;-77
2022/01/12 01:12:55;;;;;;;23.50;3.53;;;;;;;3.84;100.00;101085.88;5071557;28;20024;-77
2022/01/12 01:15:38;;;;;;;20.98;3.70;;;;;;;3.93;100.00;101086.19;5062569;28;20122;-77
2022/01/12 01:26:18;;;;;;;19.85;3.00;;;;;;;3.78;100.00;101101.03;5071873;28;20054;-77
2022/01/12 01:28:44;;;;;;;20.05;3.00;;;;;;;3.86;100.00;101099.59;5072407;28;20558;-76
2022/01/12 01:31:12;;;;;;;15.00;3.00;;;;;;;3.86;100.00;101099.59;5065672;28;20490;-77
2022/01/12 01:33:38;;;;;;;17.70;3.40;;;;;;;3.81;100.00;101106.00;5078772;28;20032;-75
2022/01/12 01:36:04;;;;;;;15.20;3.10;;;;;;;3.88;100.00;101096.06;5052055;28;20028;-76
2022/01/12 01:38:30;;;;;;;17.55;4.25;;;;;;;3.85;100.00;101102.31;5049022;28;20048;-76
2022/01/12 01:40:57;;;;;;;12.80;4.07;;;;;;;4.05;100.00;101103.59;5075073;28;20070;-77
2022/01/12 01:54:12;;;;;;;24.77;3.70;;;;;;;4.31;100.00;101098.41;5074401;28;20163;-77
2022/01/12 01:56:38;;;;;;;18.20;4.93;;;;;;;4.25;100.00;101094.50;5074532;28;20029;-76
2022/01/12 01:59:06;;;;;;;14.45;3.63;;;;;;;4.25;100.00;101080.63;5039496;28;20375;-77
2022/01/12 02:01:32;;;;;;;16.17;3.97;;;;;;;4.33;100.00;101086.19;5072887;28;20024;-78
2022/01/12 02:04:01;;;;;;;23.15;3.47;;;;;;;4.29;100.00;101095.09;5074044;28;20025;-78
2022/01/12 02:06:28;;;;;;;26.20;4.25;;;;;;;4.32;100.00;101087.09;5066661;28;20363;-76
2022/01/12 02:08:54;;;;;;;14.23;3.58;;;;;;;4.42;100.00;101098.53;5062640;28;20041;-78
2022/01/12 02:11:27;;;;;;;22.90;3.42;;;;;;;4.43;100.00;101095.00;5065573;28;20040;-77
2022/01/12 02:13:54;;;;;;;22.25;4.05;;;;;;;4.40;100.00;101097.81;5074561;28;20052;-77
2022/01/12 02:16:28;;;;;;;17.88;3.60;;;;;;;4.34;100.00;101098.25;5064394;28;20035;-77
2022/01/12 02:35:55;;;;;;;20.55;4.25;;;;;;;4.12;100.00;101130.81;5073819;28;20150;-77
2022/01/12 02:41:06;;;;;;;24.75;4.32;;;;;;;4.02;100.00;101134.13;5074642;28;20032;-77
2022/01/12 02:51:34;;;;;;;17.13;4.55;;;;;;;4.40;100.00;101128.19;5080513;28;20032;-77
2022/01/12 02:54:00;;;;;;;23.67;5.72;;;;;;;4.58;100.00;101126.94;5055369;28;20028;-76
2022/01/12 02:56:32;;;;;;;26.15;5.53;;;;;;;4.62;100.00;101118.94;5055730;28;20078;-78
2022/01/12 02:58:59;;;;;;;21.13;5.05;;;;;;;4.63;100.00;101129.25;5072354;28;20079;-77
2022/01/12 03:01:56;;;;;;;17.63;4.70;;;;;;;4.69;100.00;101117.59;5066263;28;20021;-77
2022/01/12 03:04:18;;;;;;;19.67;4.03;;;;;;;4.62;100.00;101116.31;5072419;28;20024;-78
2022/01/12 03:06:45;;;;;;;20.40;4.45;;;;;;;4.63;100.00;101113.63;5073489;28;20473;-77
2022/01/12 03:09:13;;;;;;;22.30;6.18;;;;;;;4.54;100.00;101119.47;5060801;28;20048;-78
2022/01/12 03:11:39;;;;;;;14.95;3.92;;;;;;;4.59;100.00;101122.59;5079706;28;20553;-78
2022/01/12 03:14:04;;;;;;;15.23;4.22;;;;;;;4.48;100.00;101135.47;5066687;28;20119;-77
2022/01/12 03:16:30;;;;;;;19.10;4.65;;;;;;;4.27;100.00;101130.75;5062704;28;20473;-78
2022/01/12 03:18:59;;;;;;;17.85;4.20;;;;;;;4.16;100.00;101144.47;5072285;28;20036;-78
2022/01/12 03:21:28;;;;;;;18.67;5.47;;;;;;;4.00;100.00;101142.03;5072724;28;20028;-78
2022/01/12 03:23:54;;;;;;;14.98;4.03;;;;;;;4.04;100.00;101137.50;5065525;28;20032;-78
2022/01/12 03:26:21;;;;;;;22.10;4.28;;;;;;;4.14;100.00;101148.94;5072914;28;20474;-78
2022/01/12 03:28:54;;;;;;;11.43;4.03;;;;;;;4.30;100.00;101146.16;5072808;28;20127;-78
2022/01/12 03:31:23;;;;;;;21.10;4.38;;;;;;;4.22;100.00;101143.25;5061393;28;20046;-77
2022/01/12 03:39:08;;;;;;;18.48;3.70;;;;;;;3.96;100.00;101146.59;5071313;28;20028;-77
2022/01/12 03:41:35;;;;;;;19.88;4.20;;;;;;;3.78;100.00;101153.81;5072549;28;20027;-78
2022/01/12 03:44:04;;;;;;;14.50;3.30;;;;;;;3.64;100.00;101146.91;5049273;28;20466;-77
2022/01/12 03:46:35;;;;;;;17.45;3.60;;;;;;;3.66;100.00;101159.78;5072438;28;20036;-77
2022/01/12 03:49:00;;;;;;;18.25;3.90;;;;;;;3.61;100.00;101164.44;5062598;28;20040;-78
2022/01/12 03:51:26;;;;;;;17.70;3.70;;;;;;;3.60;100.00;101149.78;5071880;28;20027;-77
2022/01/12 03:53:52;;;;;;;12.90;4.00;;;;;;;3.57;100.00;101159.44;5062609;28;20494;-79
2022/01/12 03:56:18;;;;;;;18.88;3.53;;;;;;;3.75;100.00;101148.81;5063665;28;20047;-77
2022/01/12 03:58:43;;;;;;;11.95;3.15;;;;;;;3.94;100.00;101163.25;5071642;28;20040;-77
2022/01/12 04:01:09;;;;;;;12.73;3.58;;;;;;;4.10;100.00;101168.28;5071806;28;20386;-78
2022/01/12 04:03:43;;;;;;;13.50;3.33;;;;;;;4.15;100.00;101166.19;5043279;28;20481;-77
2022/01/12 04:08:53;;;;;;;11.75;3.75;;;;;;;4.21;100.00;101158.00;5054267;28;20044;-77
2022/01/12 04:11:19;;;;;;;13.00;3.35;;;;;;;4.33;100.00;101174.56;5071215;28;20477;-78
2022/01/12 04:13:50;;;;;;;19.08;4.53;;;;;;;4.29;100.00;101175.69;5071949;28;20150;-77
2022/01/12 04:16:16;;;;;;;24.70;4.60;;;;;;;4.26;100.00;101165.50;5071829;28;20491;-77
2022/01/12 04:18:42;;;;;;;15.13;3.95;;;;;;;4.26;100.00;101181.94;5071150;28;20031;-78
2022/01/12 04:21:13;;;;;;;15.25;3.60;;;;;;;4.13;100.00;101160.28;5071934;28;20496;-78
2022/01/12 04:23:40;;;;;;;13.52;4.13;;;;;;;4.26;100.00;101187.13;5072056;28;20024;-77
2022/01/12 04:26:13;;;;;;;16.35;3.67;;;;;;;4.26;100.00;101181.94;5071038;28;20178;-77
2022/01/12 04:28:42;;;;;;;22.90;4.28;;;;;;;4.27;100.00;101182.75;5054070;28;20119;-77
2022/01/12 04:31:08;;;;;;;20.42;4.57;;;;;;;4.38;100.00;101190.69;5070189;28;20036;-77
2022/01/12 04:33:35;;;;;;;25.48;4.68;;;;;;;4.38;100.00;101203.69;5056385;28;20111;-77
2022/01/12 04:36:02;;;;;;;16.08;4.32;;;;;;;4.45;100.00;101198.94;5071478;28;20417;-77
2022/01/12 04:38:30;;;;;;;19.52;4.40;;;;;;;4.49;100.00;101195.19;5070994;28;20170;-78
2022/01/12 04:40:56;;;;;;;12.40;3.90;;;;;;;4.42;100.00;101194.75;5064485;28;20066;-76
2022/01/12 04:43:24;;;;;;;17.25;4.32;;;;;;;4.39;100.00;101184.56;5071792;28;20032;-77
2022/01/12 04:50:50;;;;;;;19.48;4.90;;;;;;;4.34;100.00;101191.84;5069626;28;20036;-77
2022/01/12 04:53:18;;;;;;;21.58;4.43;;;;;;;4.24;100.00;101195.97;5071833;28;20064;-77
2022/01/12 04:55:43;;;;;;;16.80;3.92;;;;;;;4.04;100.00;101205.06;5071500;28;20039;-78
2022/01/12 04:58:10;;;;;;;14.05;3.72;;;;;;;3.88;100.00;101210.38;5070586;28;20111;-76
2022/01/12 05:00:37;;;;;;;16.10;3.70;;;;;;;3.67;100.00;101209.03;5059279;28;20381;-76
2022/01/12 05:13:46;;;;;;;17.77;4.47;;;;;;;4.00;100.00;101199.22;5076460;28;20058;-76
2022/01/12 05:16:12;;;;;;;21.95;4.65;;;;;;;4.04;100.00;101212.84;5064920;28;20029;-77
2022/01/12 05:18:40;;;;;;;19.50;5.25;;;;;;;4.14;100.00;101204.38;5076694;28;20021;-76
2022/01/12 05:21:06;;;;;;;15.43;4.30;;;;;;;4.14;100.00;101196.56;5078996;28;20031;-78
2022/01/12 05:23:32;;;;;;;19.88;5.40;;;;;;;4.22;100.00;101203.03;5070633;28;20032;-76
2022/01/12 05:26:00;;;;;;;18.15;5.57;;;;;;;4.31;100.00;101212.81;5075463;28;20090;-78
2022/01/12 05:28:27;;;;;;;19.13;5.07;;;;;;;4.39;100.00;101210.56;5068024;28;20029;-77
2022/01/12 05:30:54;;;;;;;23.00;5.15;;;;;;;4.38;100.00;101216.69;5074938;28;20054;-77
2022/01/12 05:33:25;;;;;;;23.35;5.03;;;;;;;4.37;100.00;101212.44;5076486;28;20036;-77
2022/01/12 05:35:52;;;;;;;19.30;4.78;;;;;;;4.31;100.00;101220.63;5062487;28;20036;-77
2022/01/12 05:38:18;;;;;;;21.45;4.45;;;;;;;4.23;100.00;101220.28;5073442;28;20051;-78
2022/01/12 05:40:48;;;;;;;22.25;4.68;;;;;;;4.06;100.00;101211.81;5064286;28;20150;-78
2022/01/12 05:43:16;;;;;;;20.95;4.78;;;;;;;4.03;100.00;101214.59;5073860;28;20043;-77
2022/01/12 05:45:44;;;;;;;22.67;5.03;;;;;;;3.99;100.00;101211.34;5064700;28;20072;-77
2022/01/12 05:50:38;;;;;;;14.30;4.50;;;;;;;3.86;100.00;101216.50;5074244;28;20119;-77
2022/01/12 05:53:04;;;;;;;22.88;5.13;;;;;;;3.86;100.00;101226.91;5062492;28;20075;-78
2022/01/12 05:55:30;;;;;;;24.67;5.57;;;;;;;3.89;100.00;101232.81;5074738;28;20033;-78
2022/01/12 05:57:56;;;;;;;23.63;5.65;;;;;;;3.79;100.00;101243.81;5074120;28;20074;-77
2022/01/12 06:00:24;;;;;;;12.35;4.85;;;;;;;3.74;100.00;101225.09;5063909;28;20040;-77
2022/01/12 06:02:50;;;;;;;21.77;5.55;;;;;;;3.68;100.00;101231.50;5074389;28;20037;-78
2022/01/12 06:05:18;;;;;;;25.63;5.22;;;;;;;3.63;100.00;101222.31;5047903;28;20402;-78
2022/01/12 06:07:45;;;;;;;21.45;5.43;;;;;;;3.67;100.00;101226.38;5065702;28;20390;-77
2022/01/12 06:10:11;;;;;;;16.52;4.57;;;;;;;3.64;100.00;101229.16;5074817;28;20520;-77
2022/01/12 06:12:38;;;;;;;19.88;5.05;;;;;;;3.63;100.00;101227.50;5073771;28;20446;-77
2022/01/12 06:15:05;;;;;;;21.05;4.72;;;;;;;3.67;100.00;101227.22;5074274;28;20381;-78
2022/01/12 06:17:30;;;;;;;21.08;4.50;;;;;;;3.69;100.00;101221.91;5073599;28;20103;-76
2022/01/12 06:19:56;;;;;;;17.27;5.78;;;;;;;3.77;100.00;101229.25;5074477;28;20540;-77
2022/01/12 06:22:23;;;;;;;13.98;5.90;;;;;;;3.79;100.00;101230.81;5074388;28;20055;-77
2022/01/12 06:24:50;;;;;;;17.02;5.80;;;;;;;3.64;100.00;101235.22;5089295;28;20028;-77
2022/01/12 06:27:20;;;;;;;27.13;6.13;;;;;;;3.56;100.00;101235.69;5072934;28;20066;-77
2022/01/12 06:32:35;;;;;;;18.60;4.00;;;;;;;3.96;100.00;101254.91;5053394;28;20040;-76
2022/01/12 06:35:00;;;;;;;18.45;3.80;;;;;;;4.17;100.00;101259.69;5074098;28;20622;-77
2022/01/12 06:37:26;;;;;;;18.50;3.70;;;;;;;4.30;100.00;101263.16;5056038;28;20032;-78
2022/01/12 06:39:52;;;;;;;16.83;3.88;;;;;;;4.38;100.00;101263.50;5090017;28;20033;-77
2022/01/12 06:42:17;;;;;;;18.48;4.38;;;;;;;4.27;100.00;101258.16;5039461;28;20025;-77
2022/01/12 06:44:43;;;;;;;17.30;4.35;;;;;;;4.34;100.00;101267.25;5073412;28;20116;-78
2022/01/12 06:47:09;;;;;;;17.13;3.65;;;;;;;4.26;100.00;101262.53;5073689;28;20037;-77
2022/01/12 06:49:34;;;;;;;14.70;4.18;;;;;;;4.45;100.00;101263.09;5073887;28;20037;-78
2022/01/12 06:52:00;;;;;;;19.55;3.88;;;;;;;4.46;100.00;101272.56;5071896;28;20029;-78
2022/01/12 06:54:26;;;;;;;24.52;4.63;;;;;;;4.54;100.00;101271.13;5073394;28;20111;-78
2022/01/12 06:56:52;;;;;;;14.70;3.80;;;;;;;4.55;100.00;101287.59;5073335;28;20382;-78
2022/01/12 06:59:17;;;;;;;18.05;3.83;;;;;;;4.51;100.00;101280.91;5065069;28;20031;-78
2022/01/12 07:01:44;;;;;;;20.13;3.88;;;;;;;4.51;100.00;101280.91;5048481;28;20381;-78
2022/01/12 07:04:10;;;;;;;18.35;4.38;;;;;;;4.53;100.00;101284.25;5063638;28;20032;-78
2022/01/12 07:06:36;;;;;;;15.32;3.35;;;;;;;4.71;100.00;101285.63;5073390;28;20040;-77
2022/01/12 07:09:04;;;;;;;16.83;3.70;;;;;;;4.60;100.00;101292.47;5061691;28;20048;-77
2022/01/12 07:11:30;;;;;;;14.93;3.60;;;;;;;4.63;100.00;101316.53;5072310;28;20028;-78
2022/01/12 07:13:56;;;;;;;20.25;4.22;;;;;;;4.67;100.00;101307.59;5073207;28;20506;-78
2022/01/12 07:16:21;;;;;;;14.98;3.53;;;;;;;4.74;100.00;101315.03;5063016;28;20041;-77
2022/01/12 07:18:47;;;;;;;15.02;3.65;;;;;;;4.72;100.00;101302.09;5065109;28;20032;-77
2022/01/12 07:21:12;;;;;;;18.27;3.65;;;;;;;4.82;100.00;101304.94;5061899;28;20060;-78
2022/01/12 07:23:38;;;;;;;26.60;5.75;;;;;;;4.70;100.00;101299.59;5061945;28;20028;-78
2022/01/12 07:26:03;;;;;;;18.13;4.13;;;;;;;4.73;100.00;101290.75;5079172;28;20470;-78
2022/01/12 07:28:30;;;;;;;17.27;3.67;;;;;;;4.70;100.00;101316.97;5072253;28;20024;-79
2022/01/12 07:30:55;;;;;;;19.30;3.80;;;;;;;4.60;100.00;101308.09;5066331;28;20024;-79
2022/01/12 07:33:22;;;;;;;19.98;4.15;;;;;;;4.84;100.00;101313.47;5045906;28;20500;-78
2022/01/12 07:35:48;;;;;;;19.83;4.88;;;;;;;4.58;100.00;101310.81;5060005;28;20513;-80
2022/01/12 07:38:13;;;;;;;11.98;4.03;;;;;;;4.49;100.00;101296.63;5063316;28;20055;-79
2022/01/12 07:40:39;;;;;;;16.60;3.95;;;;;;;4.58;100.00;101309.03;5072489;28;20058;-81
2022/01/12 07:43:06;;;;;;;21.58;3.88;;;;;;;4.76;100.00;101320.94;5072360;28;20052;-80
2022/01/12 07:45:33;;;;;;;13.77;3.90;;;;;;;4.83;100.00;101317.00;5071443;28;20025;-80
2022/01/12 07:48:00;;;;;;;13.73;3.80;;;;;;;4.88;100.00;101321.91;5063300;28;20032;-80
2022/01/12 07:50:26;;;;;;;12.55;3.53;;;;;;;5.08;100.00;101325.78;5071921;28;20085;-81
2022/01/12 07:52:53;;;;;;;16.52;3.72;;;;;;;4.93;100.00;101336.31;5050079;28;20626;-81
2022/01/12 07:55:23;;;;;;;11.88;3.30;;;;;;;4.88;100.00;101325.34;5046661;28;20044;-81
2022/01/12 07:57:51;;;;;;;13.93;3.65;;;;;;;4.83;100.00;101337.81;5070466;28;20032;-81
2022/01/12 08:00:17;;;;;;;16.58;3.35;;;;;;;4.90;100.00;101339.06;5043860;28;20139;-81
2022/01/12 08:02:43;;;;;;;15.30;3.53;;;;;;;5.06;100.00;101328.50;5062153;28;20435;-81
2022/01/12 08:05:10;;;;;;;16.38;4.13;;;;;;;5.07;100.00;101334.53;5064975;28;20028;-80
2022/01/12 08:07:38;;;;;;;21.60;3.63;;;;;;;5.10;100.00;101335.19;5070947;28;20446;-80
2022/01/12 08:10:05;;;;;;;18.25;4.07;;;;;;;5.18;100.00;101339.03;5071619;28;20028;-81
2022/01/12 08:12:31;;;;;;;9.80;4.40;;;;;;;5.15;100.00;101351.31;5069190;28;20031;-80
2022/01/12 08:14:57;;;;;;;8.60;3.55;;;;;;;5.18;100.00;101349.44;5071690;28;20097;-80
2022/01/12 08:17:22;;;;;;;22.60;4.90;;;;;;;5.18;100.00;101350.28;5070773;28;20028;-81
2022/01/12 08:19:48;;;;;;;12.25;3.80;;;;;;;5.13;100.00;101349.78;5044959;28;20481;-77
2022/01/12 08:22:14;;;;;;;21.38;4.25;;;;;;;5.22;100.00;101364.78;5070060;28;20573;-78
2022/01/12 08:24:40;;;;;;;13.38;3.45;;;;;;;5.21;100.00;101363.09;5075333;28;20043;-78
2022/01/12 08:27:06;;;;;;;24.95;5.30;;;;;;;5.24;100.00;101355.09;5070949;28;20039;-77
2022/01/12 08:29:32;;;;;;;18.33;4.07;;;;;;;5.31;100.00;101354.69;5067869;28;20028;-77
2022/01/12 08:31:58;;;;;;;20.42;3.90;;;;;;;5.21;100.00;101352.69;5069845;28;20028;-78
2022/01/12 08:34:24;;;;;;;16.75;4.18;;;;;;;5.31;100.00;101339.88;5059600;28;20097;-78
2022/01/12 08:36:49;;;;;;;18.45;4.10;;;;;;;5.42;100.00;101344.38;5061714;28;20060;-77
2022/01/12 08:39:15;;;;;;;15.43;3.72;;;;;;;5.44;100.00;101319.03;5065835;28;20058;-78
2022/01/12 08:41:41;;;;;;;13.73;3.53;;;;;;;5.53;100.00;101336.69;5059274;28;20036;-78
2022/01/12 08:44:08;;;;;;;14.90;3.20;;;;;;;5.58;100.00;101347.59;5069889;28;20081;-78
2022/01/12 08:46:34;;;;;;;10.07;3.63;;;;;;;5.57;100.00;101337.28;5042681;28;20038;-79
2022/01/12 08:49:00;;;;;;;16.23;3.75;;;;;;;5.58;100.00;101350.22;5058117;28;20111;-80
2022/01/12 08:51:26;;;;;;;13.43;3.47;;;;;;;5.67;100.00;101347.91;5069602;28;20111;-78
2022/01/12 08:53:51;;;;;;;19.83;3.67;;;;;;;5.56;100.00;101351.25;5070978;28;20040;-79
2022/01/12 08:56:19;;;;;;;23.48;3.80;;;;;;;5.61;100.00;101363.97;5059908;28;20033;-78
2022/01/12 08:58:47;;;;;;;12.63;3.20;;;;;;;5.70;100.00;101347.72;5069821;28;20028;-78
2022/01/12 09:01:12;;;;;;;14.25;4.00;;;;;;;5.73;100.00;101352.72;5071654;28;20036;-78
2022/01/12 09:03:39;;;;;;;12.10;3.35;;;;;;;5.87;100.00;101354.38;5070913;28;20024;-79
2022/01/12 09:06:05;;;;;;;19.08;3.22;;;;;;;5.83;100.00;101353.72;5061483;28;20036;-80
2022/01/12 09:08:34;;;;;;;14.93;2.92;;;;;;;5.83;100.00;101364.16;5070846;28;20406;-78
2022/01/12 09:11:01;;;;;;;19.27;4.03;;;;;;;5.80;100.00;101351.34;5063094;28;20086;-79
2022/01/12 09:13:27;;;;;;;16.35;3.72;;;;;;;6.03;100.00;101348.13;5070746;28;20689;-79
2022/01/12 09:15:52;;;;;;;11.65;3.25;;;;;;;6.11;100.00;101335.38;5070883;28;20052;-78
2022/01/12 09:18:19;;;;;;;25.33;3.50;;;;;;;6.14;100.00;101345.56;5061024;28;20028;-79
2022/01/12 09:20:46;;;;;;;15.90;3.15;;;;;;;6.14;100.00;101340.34;5071152;28;20039;-79
2022/01/12 09:23:13;;;;;;;15.45;4.03;;;;;;;6.25;100.00;101352.63;5061401;28;20031;-79
2022/01/12 09:25:39;;;;;;;17.33;3.47;;;;;;;6.25;100.00;101343.03;5069935;28;20029;-80
2022/01/12 09:28:06;;;;;;;12.95;3.75;;;;;;;6.23;100.00;101339.72;5070452;28;20033;-79
2022/01/12 09:30:32;;;;;;;17.08;3.30;;;;;;;6.37;100.00;101343.94;5070100;28;20112;-79
2022/01/12 09:32:59;;;;;;;15.93;4.07;;;;;;;6.33;100.00;101334.69;5070173;28;20043;-79
2022/01/12 09:35:25;;;;;;;14.77;3.75;;;;;;;6.34;100.00;101338.09;5058224;28;20032;-79
2022/01/12 09:37:51;;;;;;;15.43;3.58;;;;;;;6.36;100.00;101338.81;5070610;28;20029;-80
2022/01/12 09:40:17;;;;;;;10.45;3.60;;;;;;;6.40;100.00;101333.28;5070948;28;20078;-81
2022/01/12 09:42:48;;;;;;;17.80;3.20;;;;;;;6.47;100.00;101338.06;5070734;28;20473;-80
2022/01/12 09:45:18;;;;;;;16.77;4.07;;;;;;;6.49;100.00;101329.19;5057770;28;20044;-81
2022/01/12 09:47:47;;;;;;;13.05;2.60;;;;;;;6.47;100.00;101330.22;5070699;28;20029;-81
2022/01/12 09:50:17;;;;;;;20.63;3.50;;;;;;;6.52;100.00;101346.41;5061526;28;20107;-80
2022/01/12 09:52:42;;;;;;;9.27;3.67;;;;;;;6.47;100.00;101351.09;5070675;28;20032;-81
2022/01/12 09:55:08;;;;;;;11.80;3.28;;;;;;;6.61;100.00;101353.56;5074576;28;20497;-80
2022/01/12 09:57:34;;;;;;;9.75;3.13;;;;;;;6.61;100.00;101344.91;5071771;28;20035;-80
2022/01/12 10:00:00;;;;;;;11.82;3.45;;;;;;;6.71;100.00;101357.19;5057078;28;20027;-79
2022/01/12 10:02:25;;;;;;;23.20;6.38;;;;;;;6.67;100.00;101347.88;5073985;28;20466;-81
2022/01/12 10:05:06;;;;;;;13.93;4.47;;;;;;;6.74;100.00;101337.00;5073155;28;20024;-80
2022/01/12 10:07:33;;;;;;;19.20;6.07;;;;;;;6.81;100.00;101351.28;5063684;28;20042;-80
2022/01/12 10:10:04;;;;;;;24.85;7.68;;;;;;;6.83;100.00;101354.59;5073972;28;20529;-79
2022/01/12 10:12:31;;;;;;;10.20;3.22;;;;;;;6.72;100.00;101335.34;5045957;28;20032;-79
2022/01/12 10:15:00;;;;;;;12.05;3.95;;;;;;;6.77;100.00;101331.56;5061680;28;20039;-79
2022/01/12 10:17:39;;;;;;;13.57;5.25;;;;;;;6.95;100.00;101348.47;5064095;28;20032;-80
2022/01/12 10:20:12;;;;;;;28.08;7.90;;;;;;;7.00;100.00;101356.78;5072597;28;20048;-80
2022/01/12 10:22:42;;;;;;;17.98;7.07;;;;;;;7.13;100.00;101361.13;5068453;28;20027;-79
2022/01/12 10:25:17;;;;;;;13.80;6.47;;;;;;;7.27;100.00;101347.03;5073128;28;20059;-80
2022/01/12 10:33:11;;;;;;;18.33;7.80;;;;;;;7.36;100.00;101342.88;4998904;28;20069;-82
2022/01/12 10:35:40;;;;;;;14.38;5.22;;;;;;;7.48;100.00;101355.03;4984251;28;20030;-83
2022/01/12 10:38:17;;;;;;;11.85;3.38;;;;;;;7.48;100.00;101365.47;4986685;28;20036;-83
2022/01/12 10:41:29;;;;;;;10.40;2.75;;;;;;;7.41;100.00;101372.09;4968330;28;20468;-82
2022/01/12 10:43:55;;;;;;;18.40;3.35;;;;;;;7.38;100.00;101367.94;4971967;28;20073;-81
2022/01/12 10:46:20;;;;;;;11.35;3.13;;;;;;;7.39;100.00;101363.53;4981506;28;20069;-83
2022/01/12 10:48:56;;;;;;;10.57;2.42;;;;;;;7.34;100.00;101350.00;4990997;28;20032;-83
2022/01/12 10:51:26;;;;;;;12.60;3.72;;;;;;;7.31;100.00;101358.09;5000971;28;20108;-86
2022/01/12 10:53:58;;;;;;;15.48;3.40;;;;;;;7.29;100.00;101361.63;4986061;28;20740;-85
2022/01/12 10:56:24;;;;;;;16.58;3.17;;;;;;;7.20;100.00;101358.88;4985736;28;20172;-83
2022/01/12 10:58:57;;;;;;;16.98;3.72;;;;;;;7.27;100.00;101353.09;4970674;28;20116;-84
2022/01/12 11:01:29;;;;;;;12.98;3.40;;;;;;;7.20;100.00;101333.59;4986943;28;20026;-85
2022/01/12 11:03:55;;;;;;;9.77;4.00;;;;;;;7.22;100.00;101326.47;4984988;28;20025;-89
2022/01/12 11:06:21;;;;;;;11.02;3.10;;;;;;;7.26;100.00;101327.88;4984582;28;20044;-85
2022/01/12 11:08:49;;;;;;;13.98;4.95;;;;;;;7.09;100.00;101330.97;4981902;28;20034;-86
2022/01/12 11:11:19;;;;;;;32.70;13.23;;;;;;;7.12;100.00;101333.34;4985002;28;20042;-82
2022/01/12 11:13:47;;;;;;;14.10;5.32;;;;;;;7.09;100.00;101304.84;4997476;28;20033;-84
2022/01/12 11:16:14;;;;;;;13.18;4.65;;;;;;;7.14;100.00;101310.53;4991367;28;20490;-84
2022/01/12 11:18:41;;;;;;;13.65;5.50;;;;;;;7.29;100.00;101325.06;4984144;28;20491;-83
2022/01/12 11:21:13;;;;;;;12.48;3.25;;;;;;;7.24;100.00;101329.78;4989182;28;20028;-82
2022/01/12 11:23:41;;;;;;;12.47;3.80;;;;;;;7.36;100.00;101335.03;4968289;28;20030;-82
2022/01/12 11:26:28;;;;;;;11.82;3.53;;;;;;;7.46;100.00;101319.50;5003072;28;20120;-82
2022/01/12 11:28:55;;;;;;;14.13;2.85;;;;;;;7.44;100.00;101332.66;5001069;28;20033;-82
2022/01/12 11:31:31;;;;;;;12.80;3.42;;;;;;;7.54;100.00;101331.03;4997365;28;20471;-82
2022/01/12 11:33:57;;;;;;;11.18;3.05;;;;;;;7.47;100.00;101339.44;4986081;28;20074;-82
2022/01/12 11:36:28;;;;;;;11.77;3.28;;;;;;;7.62;100.00;101342.66;4992630;28;20038;-82
2022/01/12 11:39:09;;;;;;;11.18;4.20;;;;;;;7.64;100.00;101338.16;4968644;28;20056;-84
2022/01/12 11:41:38;;;;;;;14.82;3.95;;;;;;;7.69;100.00;101343.88;4976566;28;20403;-84
2022/01/12 11:44:09;;;;;;;10.43;3.10;;;;;;;7.60;100.00;101339.34;4981290;28;20037;-87
2022/01/12 11:46:43;;;;;;;26.65;4.50;;;;;;;7.63;100.00;101352.16;4979387;28;20038;-88
2022/01/12 11:49:09;;;;;;;10.85;3.47;;;;;;;7.66;100.00;101331.84;4996390;28;20030;-87
2022/01/12 11:51:44;;;;;;;9.48;3.42;;;;;;;7.67;100.00;101332.72;5008622;28;20040;-85
2022/01/12 11:54:16;;;;;;;14.32;3.58;;;;;;;7.66;100.00;101341.47;4974876;28;20056;-87
2022/01/12 11:57:03;;;;;;;16.33;3.42;;;;;;;7.68;100.00;101334.38;4974032;28;20504;-87
2022/01/12 12:00:00;;;;;;;13.23;3.05;;;;;;;7.56;100.00;101342.19;4988509;28;20034;-88
2022/01/12 12:03:47;;;;;;;11.93;3.20;;;;;;;7.51;100.00;101346.94;4987207;28;20152;-87
2022/01/12 12:06:21;;;;;;;16.20;3.20;;;;;;;7.39;100.00;101329.56;4979641;28;20038;-86
2022/01/12 12:09:06;;;;;;;13.48;3.67;;;;;;;7.44;100.00;101340.50;4989146;28;20096;-84
2022/01/12 12:11:33;;;;;;;13.45;3.50;;;;;;;7.34;100.00;101340.38;4972617;28;20038;-83
2022/01/12 12:14:05;;;;;;;11.00;4.03;;;;;;;7.35;100.00;101357.72;5003037;28;20525;-86
2022/01/12 12:16:31;;;;;;;16.60;4.20;;;;;;;7.28;100.00;101346.06;5000332;28;20430;-85
2022/01/12 12:19:01;;;;;;;15.00;4.03;;;;;;;7.23;100.00;101345.59;4988304;28;20045;-84
2022/01/12 12:21:27;;;;;;;11.30;3.60;;;;;;;7.10;100.00;101322.19;5000780;28;20038;-84
2022/01/12 12:23:52;;;;;;;15.43;4.35;;;;;;;7.22;100.00;101360.41;4967993;28;20036;-85
2022/01/12 12:26:19;;;;;;;13.68;3.65;;;;;;;7.19;100.00;101346.78;4971353;28;20042;-82
2022/01/12 12:28:55;;;;;;;12.80;3.50;;;;;;;7.23;100.00;101338.56;4982328;28;20057;-81
2022/01/12 12:31:26;;;;;;;12.13;4.10;;;;;;;7.31;100.00;101339.78;5004897;28;20357;-83
2022/01/12 12:33:59;;;;;;;12.38;3.63;;;;;;;7.23;100.00;101338.56;4984012;28;20471;-83
2022/01/12 12:36:25;;;;;;;13.40;3.55;;;;;;;7.25;100.00;101349.72;4972158;28;20038;-82
2022/01/12 12:38:51;;;;;;;11.88;3.88;;;;;;;7.28;100.00;101339.09;4975070;28;20453;-81
2022/01/12 12:41:46;;;;;;;12.75;4.40;;;;;;;7.24;100.00;101342.84;4982779;28;20077;-82
2022/01/12 12:44:22;;;;;;;15.13;3.00;;;;;;;7.28;100.00;101357.38;4984217;28;20052;-82
2022/01/12 12:47:03;;;;;;;9.93;3.50;;;;;;;7.22;100.00;101347.34;4986037;28;20034;-82
2022/01/12 12:49:29;;;;;;;15.10;4.57;;;;;;;7.14;100.00;101376.66;4963759;28;20042;-82
2022/01/12 12:52:01;;;;;;;10.35;3.60;;;;;;;7.13;100.00;101369.78;4969906;28;20084;-82
2022/01/12 12:54:27;;;;;;;15.18;3.38;;;;;;;7.05;100.00;101355.63;4967093;28;20046;-83
2022/01/12 12:56:59;;;;;;;13.95;3.67;;;;;;;7.11;100.00;101355.19;4983271;28;20085;-83